Palestine, TX

3:52 PM CDT on August 27, 2014 (GMT -0500)
Crockett | Change Station
CLOSE
Current Station
Airport
Location: Crockett,
Elevation: 348 ft
Nearby Weather Stations

Elev 348 ft 31.31 °N, 95.40 °W | Updated 22 minutes ago

Partly Cloudy
Partly Cloudy
93 °F
Feels Like 96 °F
N
7
Wind Variable Wind from East
Gusts mph

Today
High -- | Low -- °F
--% Chance of Precip.
Yesterday
High -- | Low -- °F
Precip. -- in
6:55 AM 7:52 PM
Waxing Crescent, 5% visible
Pressure 30.01 in
Visibility 10.0 miles
Clouds
Heat Index 96 °F
Dew Point 66 °F
Humidity 41%
Rainfall 0.00 in
Snow Depth Not available.
UV Not available.
Pollen 8.50 out of 12
Air Quality Not available.
Flu Activity Not available.
METAR KDKR 272030Z AUTO 10006KT 10SM 34/19 A3001 RMK AO2

More Conditions Fewer Conditions

Pressure 30.01 in
Visibility 10.0 miles
Clouds
Heat Index 96 °F
Dew Point 66 °F
Humidity 41%
Rainfall 0.00 in
Snow Depth Not available.
UV Not available.
Pollen 8.50 out of 12
Air Quality Not available.
Flu Activity Not available.
METAR KDKR 272030Z AUTO 10006KT 10SM 34/19 A3001 RMK AO2

More Conditions Fewer Conditions

10-Day Weather Forecast

Almanac

Astronomy

Aug. 27, 2014 Rise Set
Actual Time 6:55 AM CDT 7:52 PM CDT
Civil Twilight 6:29 AM CDT 8:17 PM CDT
Nautical Twilight 6:00 AM CDT 8:47 PM CDT
Astronomical Twilight 5:29 AM CDT 9:17 PM CDT
Moon 8:42 AM CDT 8:56 PM CDT
Length of Visible Light 13h 47m
Length of Day
12h 57m
Tomorrow will be 1m 50s shorter.
Waxing Crescent, 5% of the Moon is Illuminated
Today
Waxing Crescent
Sep 2
First Quarter
Sep 8
Full
Sep 15
Last Quarter
Sep 24
New

Today's Extremes

State Highs State Lows

Community

WunderPhotos

Upload Photos

1,747,781 photos uploaded!

Nearby

Snow Depth

Station Depth Elevation
No new snow has been reported.

Earthquake Activity

City Distance Mag. Time & Date
No recent earthquake activity has been reported nearby.
Minimum magnitude displayed is 2.5.

Coastal Water Temperatures

Place Temperature
No Stations Reporting

Nearby Weather Stations